NOZ6JS ENGM-LIRP
Flight info
| Callsign | NOZ6JS |
|---|---|
| Flight time | N/A |
| Altitude | 37000 |
| Route | VIPPA DCT ESOSI DCT GOBOT/N0455F390 DCT NEBUN DCT EMBOX DCT EXITI DCT BERAS DCT LIKDA DCT BAKOR DCT VESAL DCT LAMPO DCT ROKIB DCT VIC DCT KOPER DCT LUMAV DCT GAVRA DCT KUGIX Y662 AKUTO L12 MAREL |
| Aircraft | B38M/M-SDE1FGHILORVWXY/HB1 |
Departure
| Time | N/A |
|---|---|
| Airport | Oslo-Gardermoen International Airport (ENGM) |
Arrival
| Time | 2026-05-07 08:42 |
|---|---|
| Airport | Pisa International Airport (LIRP) |
| Time | Latitude | Longitude | Altitude | Speed | Heading |
|---|---|---|---|---|---|
| 2026-05-07 06:50 | 54.29265 | 11.11347 | 37041 ft | 442 kts | 179° |
| 2026-05-07 06:50 | 54.26191 | 11.11614 | 37043 ft | 442 kts | 179° |
| 2026-05-07 06:51 | 54.20050 | 11.12147 | 37038 ft | 442 kts | 179° |
| 2026-05-07 06:51 | 54.13910 | 11.12678 | 37037 ft | 442 kts | 179° |
| 2026-05-07 06:52 | 54.07769 | 11.13208 | 37037 ft | 441 kts | 179° |
| 2026-05-07 06:52 | 54.01632 | 11.13735 | 37038 ft | 441 kts | 179° |
| 2026-05-07 06:53 | 53.95497 | 11.14261 | 37035 ft | 441 kts | 179° |
| 2026-05-07 06:53 | 53.89404 | 11.14782 | 37036 ft | 441 kts | 179° |
| 2026-05-07 06:54 | 53.83273 | 11.15304 | 37033 ft | 441 kts | 179° |
| 2026-05-07 06:54 | 53.77141 | 11.15825 | 37036 ft | 441 kts | 179° |
| 2026-05-07 06:55 | 53.71006 | 11.16345 | 37032 ft | 441 kts | 179° |
| 2026-05-07 06:55 | 53.64880 | 11.16862 | 37028 ft | 440 kts | 179° |
| 2026-05-07 06:56 | 53.58793 | 11.17375 | 37019 ft | 440 kts | 179° |
| 2026-05-07 06:56 | 53.52671 | 11.17889 | 37010 ft | 440 kts | 179° |
| 2026-05-07 06:57 | 53.46559 | 11.18401 | 37005 ft | 440 kts | 179° |
| 2026-05-07 06:57 | 53.40442 | 11.18911 | 36999 ft | 440 kts | 179° |
| 2026-05-07 06:58 | 53.34360 | 11.19418 | 36995 ft | 439 kts | 179° |
| 2026-05-07 06:58 | 53.28253 | 11.19925 | 36994 ft | 439 kts | 179° |
| 2026-05-07 06:59 | 53.22147 | 11.20430 | 36990 ft | 439 kts | 179° |
| 2026-05-07 06:59 | 53.16049 | 11.20934 | 36986 ft | 439 kts | 179° |
| 2026-05-07 07:00 | 53.09949 | 11.21436 | 36983 ft | 439 kts | 179° |
| 2026-05-07 07:00 | 53.03850 | 11.22156 | 36973 ft | 439 kts | 177° |
| 2026-05-07 07:01 | 52.97760 | 11.22981 | 36978 ft | 439 kts | 177° |
| 2026-05-07 07:01 | 52.91703 | 11.23787 | 36971 ft | 439 kts | 177° |
| 2026-05-07 07:02 | 52.85619 | 11.24592 | 36970 ft | 439 kts | 177° |
| 2026-05-07 07:02 | 52.79531 | 11.25396 | 36966 ft | 438 kts | 177° |
| 2026-05-07 07:03 | 52.73451 | 11.26197 | 36968 ft | 438 kts | 177° |
| 2026-05-07 07:03 | 52.67366 | 11.26996 | 36963 ft | 438 kts | 177° |
| 2026-05-07 07:04 | 52.61288 | 11.27792 | 36960 ft | 438 kts | 177° |
| 2026-05-07 07:04 | 52.55244 | 11.28582 | 36957 ft | 438 kts | 177° |
| 2026-05-07 07:05 | 52.49164 | 11.29374 | 36956 ft | 438 kts | 177° |
| 2026-05-07 07:05 | 52.43081 | 11.30164 | 36956 ft | 438 kts | 177° |
| 2026-05-07 07:06 | 52.36996 | 11.30952 | 36951 ft | 439 kts | 177° |
| 2026-05-07 07:06 | 52.30914 | 11.31738 | 36948 ft | 439 kts | 177° |
| 2026-05-07 07:07 | 52.24822 | 11.32522 | 36952 ft | 439 kts | 177° |
| 2026-05-07 07:07 | 52.18734 | 11.33305 | 36946 ft | 439 kts | 177° |
| 2026-05-07 07:08 | 52.12688 | 11.34079 | 36951 ft | 438 kts | 177° |
| 2026-05-07 07:08 | 52.06607 | 11.34850 | 36954 ft | 438 kts | 179° |
| 2026-05-07 07:09 | 52.00520 | 11.34951 | 36970 ft | 438 kts | 181° |
| 2026-05-07 07:09 | 51.94426 | 11.35084 | 36960 ft | 437 kts | 181° |
| 2026-05-07 07:10 | 51.88334 | 11.35234 | 36965 ft | 438 kts | 180° |
| 2026-05-07 07:10 | 51.82240 | 11.35386 | 36965 ft | 438 kts | 180° |
| 2026-05-07 07:11 | 51.76146 | 11.35537 | 36965 ft | 438 kts | 180° |
| 2026-05-07 07:11 | 51.70052 | 11.35687 | 36954 ft | 438 kts | 181° |
| 2026-05-07 07:12 | 51.63998 | 11.35836 | 36945 ft | 438 kts | 180° |
| 2026-05-07 07:12 | 51.57901 | 11.35985 | 36950 ft | 438 kts | 181° |
| 2026-05-07 07:13 | 51.51813 | 11.36135 | 36921 ft | 437 kts | 180° |
| 2026-05-07 07:13 | 51.45724 | 11.36284 | 36913 ft | 437 kts | 180° |
| 2026-05-07 07:14 | 51.39671 | 11.36431 | 36913 ft | 437 kts | 180° |
| 2026-05-07 07:14 | 51.33588 | 11.36579 | 36919 ft | 437 kts | 180° |
| 2026-05-07 07:15 | 51.27498 | 11.36726 | 36906 ft | 437 kts | 180° |
| 2026-05-07 07:15 | 51.21414 | 11.36873 | 36912 ft | 437 kts | 180° |
| 2026-05-07 07:16 | 51.15325 | 11.37020 | 36907 ft | 437 kts | 181° |
| 2026-05-07 07:16 | 51.09238 | 11.37166 | 36914 ft | 438 kts | 181° |
| 2026-05-07 07:17 | 51.03154 | 11.37313 | 36883 ft | 437 kts | 181° |
| 2026-05-07 07:17 | 50.97073 | 11.37458 | 36906 ft | 437 kts | 181° |
| 2026-05-07 07:18 | 50.90985 | 11.37603 | 36901 ft | 437 kts | 180° |
| 2026-05-07 07:18 | 50.84939 | 11.37747 | 36902 ft | 437 kts | 181° |
| 2026-05-07 07:19 | 50.78851 | 11.37891 | 36897 ft | 437 kts | 181° |
| 2026-05-07 07:19 | 50.72771 | 11.38035 | 36894 ft | 437 kts | 181° |
| 2026-05-07 07:20 | 50.66687 | 11.38179 | 36895 ft | 437 kts | 181° |
| 2026-05-07 07:20 | 50.60606 | 11.38322 | 36892 ft | 437 kts | 181° |
| 2026-05-07 07:21 | 50.54521 | 11.38465 | 36891 ft | 437 kts | 181° |
| 2026-05-07 07:21 | 50.48440 | 11.38607 | 36894 ft | 437 kts | 181° |
| 2026-05-07 07:22 | 50.42364 | 11.38750 | 36893 ft | 436 kts | 181° |
| 2026-05-07 07:22 | 50.36324 | 11.38890 | 36893 ft | 436 kts | 181° |
| 2026-05-07 07:23 | 50.30245 | 11.39031 | 36903 ft | 436 kts | 181° |
| 2026-05-07 07:23 | 50.24174 | 11.39172 | 36893 ft | 436 kts | 181° |
| 2026-05-07 07:24 | 50.18107 | 11.39312 | 36899 ft | 436 kts | 181° |
| 2026-05-07 07:24 | 50.13061 | 11.39429 | 36899 ft | 436 kts | 181° |
| 2026-05-07 07:25 | 50.03965 | 11.39638 | 36905 ft | 435 kts | 181° |
| 2026-05-07 07:26 | 49.97910 | 11.39778 | 36905 ft | 435 kts | 181° |
| 2026-05-07 07:26 | 49.91850 | 11.39916 | 36910 ft | 435 kts | 181° |
| 2026-05-07 07:27 | 49.85800 | 11.40054 | 36912 ft | 435 kts | 181° |
| 2026-05-07 07:27 | 49.79798 | 11.40191 | 36917 ft | 434 kts | 181° |
| 2026-05-07 07:28 | 49.73744 | 11.40328 | 36904 ft | 434 kts | 181° |
| 2026-05-07 07:28 | 49.67702 | 11.40465 | 36928 ft | 434 kts | 181° |
| 2026-05-07 07:29 | 49.61657 | 11.40602 | 36932 ft | 433 kts | 181° |
| 2026-05-07 07:29 | 49.55628 | 11.40890 | 36923 ft | 434 kts | 174° |
| 2026-05-07 07:30 | 49.49672 | 11.42063 | 36932 ft | 434 kts | 175° |
| 2026-05-07 07:30 | 49.43664 | 11.43102 | 36948 ft | 434 kts | 176° |
| 2026-05-07 07:31 | 49.37658 | 11.44122 | 36950 ft | 434 kts | 176° |
| 2026-05-07 07:31 | 49.31659 | 11.45137 | 36953 ft | 433 kts | 176° |
| 2026-05-07 07:32 | 49.25669 | 11.46148 | 36953 ft | 433 kts | 176° |
| 2026-05-07 07:32 | 49.19682 | 11.47156 | 36952 ft | 433 kts | 176° |
| 2026-05-07 07:33 | 49.13692 | 11.48163 | 36951 ft | 433 kts | 176° |
| 2026-05-07 07:33 | 49.07708 | 11.49165 | 36959 ft | 433 kts | 176° |
| 2026-05-07 07:34 | 49.01725 | 11.50165 | 36944 ft | 432 kts | 176° |
| 2026-05-07 07:34 | 48.95742 | 11.51163 | 36953 ft | 432 kts | 176° |
| 2026-05-07 07:35 | 48.89795 | 11.52153 | 36966 ft | 432 kts | 176° |
| 2026-05-07 07:35 | 48.83820 | 11.53144 | 36960 ft | 432 kts | 176° |
| 2026-05-07 07:36 | 48.77840 | 11.54134 | 36966 ft | 431 kts | 176° |
| 2026-05-07 07:36 | 48.71873 | 11.55120 | 36971 ft | 431 kts | 176° |
| 2026-05-07 07:37 | 48.65910 | 11.56102 | 36963 ft | 431 kts | 176° |
| 2026-05-07 07:37 | 48.59948 | 11.57082 | 36964 ft | 431 kts | 176° |
| 2026-05-07 07:38 | 48.53997 | 11.58058 | 36963 ft | 430 kts | 176° |
| 2026-05-07 07:38 | 48.48044 | 11.59032 | 36986 ft | 430 kts | 176° |
| 2026-05-07 07:39 | 48.42136 | 11.59996 | 36985 ft | 430 kts | 176° |
| 2026-05-07 07:39 | 48.36185 | 11.60965 | 36991 ft | 430 kts | 176° |
| 2026-05-07 07:40 | 48.30234 | 11.61932 | 36988 ft | 430 kts | 176° |
| 2026-05-07 07:40 | 48.24291 | 11.62895 | 36985 ft | 430 kts | 176° |
| 2026-05-07 07:41 | 48.18342 | 11.63857 | 36981 ft | 430 kts | 176° |
| 2026-05-07 07:41 | 48.12400 | 11.64816 | 36976 ft | 429 kts | 176° |
| 2026-05-07 07:42 | 48.06460 | 11.65772 | 36973 ft | 429 kts | 176° |
| 2026-05-07 07:42 | 48.00518 | 11.66726 | 36975 ft | 429 kts | 177° |
| 2026-05-07 07:43 | 47.94580 | 11.67677 | 36974 ft | 429 kts | 177° |
| 2026-05-07 07:43 | 47.88645 | 11.68626 | 36973 ft | 429 kts | 177° |
| 2026-05-07 07:44 | 47.82746 | 11.69567 | 36977 ft | 429 kts | 177° |
| 2026-05-07 07:44 | 47.76812 | 11.70510 | 36971 ft | 428 kts | 177° |
| 2026-05-07 07:45 | 47.70879 | 11.71452 | 36971 ft | 428 kts | 177° |
| 2026-05-07 07:45 | 47.64956 | 11.72391 | 36974 ft | 428 kts | 177° |
| 2026-05-07 07:46 | 47.59069 | 11.73320 | 36990 ft | 428 kts | 177° |
| 2026-05-07 07:46 | 47.53143 | 11.74256 | 36971 ft | 428 kts | 178° |
| 2026-05-07 07:47 | 47.47211 | 11.75189 | 36988 ft | 429 kts | 178° |
| 2026-05-07 07:47 | 47.41290 | 11.76119 | 37003 ft | 428 kts | 177° |
| 2026-05-07 07:48 | 47.35379 | 11.76906 | 36987 ft | 424 kts | 184° |
| 2026-05-07 07:48 | 47.29490 | 11.76597 | 37000 ft | 424 kts | 185° |
| 2026-05-07 07:49 | 47.23607 | 11.76280 | 36998 ft | 423 kts | 185° |
| 2026-05-07 07:49 | 47.17769 | 11.75960 | 37009 ft | 422 kts | 185° |
| 2026-05-07 07:50 | 47.11892 | 11.75639 | 36993 ft | 422 kts | 185° |
| 2026-05-07 07:50 | 47.06016 | 11.75318 | 36975 ft | 422 kts | 185° |
| 2026-05-07 07:51 | 47.00164 | 11.74999 | 37017 ft | 420 kts | 185° |
| 2026-05-07 07:51 | 46.94289 | 11.74677 | 36965 ft | 421 kts | 185° |
| 2026-05-07 07:52 | 46.88416 | 11.74356 | 36979 ft | 422 kts | 185° |
| 2026-05-07 07:52 | 46.82546 | 11.74037 | 36958 ft | 421 kts | 185° |
| 2026-05-07 07:53 | 46.76689 | 11.73717 | 36970 ft | 421 kts | 185° |
| 2026-05-07 07:53 | 46.70827 | 11.73399 | 36949 ft | 421 kts | 186° |
| 2026-05-07 07:54 | 46.65019 | 11.73085 | 36975 ft | 422 kts | 186° |
| 2026-05-07 07:54 | 46.59164 | 11.72762 | 36955 ft | 420 kts | 186° |
| 2026-05-07 07:55 | 46.53327 | 11.72436 | 36964 ft | 420 kts | 186° |
| 2026-05-07 07:55 | 46.47475 | 11.72110 | 36982 ft | 421 kts | 186° |
| 2026-05-07 07:56 | 46.41623 | 11.71784 | 36976 ft | 421 kts | 186° |
| 2026-05-07 07:56 | 46.35760 | 11.71470 | 36985 ft | 422 kts | 186° |
| 2026-05-07 07:57 | 46.29907 | 11.71160 | 36974 ft | 421 kts | 186° |
| 2026-05-07 07:57 | 46.24062 | 11.70850 | 36975 ft | 420 kts | 186° |
| 2026-05-07 07:58 | 46.18241 | 11.70542 | 36975 ft | 421 kts | 186° |
| 2026-05-07 07:58 | 46.12397 | 11.70234 | 36940 ft | 419 kts | 186° |
| 2026-05-07 07:59 | 46.06565 | 11.69920 | 37001 ft | 421 kts | 186° |
| 2026-05-07 07:59 | 46.00705 | 11.69606 | 36968 ft | 420 kts | 186° |
| 2026-05-07 08:00 | 45.94862 | 11.69292 | 36961 ft | 421 kts | 186° |
| 2026-05-07 08:00 | 45.89003 | 11.68979 | 36981 ft | 421 kts | 186° |
| 2026-05-07 08:01 | 45.83160 | 11.68667 | 36974 ft | 421 kts | 186° |
| 2026-05-07 08:01 | 45.77322 | 11.68357 | 36985 ft | 421 kts | 186° |
| 2026-05-07 08:02 | 45.71470 | 11.68046 | 36976 ft | 421 kts | 186° |
| 2026-05-07 08:02 | 45.65617 | 11.67736 | 36975 ft | 421 kts | 186° |
| 2026-05-07 08:03 | 45.59803 | 11.67325 | 36972 ft | 420 kts | 187° |
| 2026-05-07 08:03 | 45.53950 | 11.66900 | 36969 ft | 420 kts | 187° |
| 2026-05-07 08:04 | 45.48109 | 11.66479 | 36968 ft | 420 kts | 187° |
| 2026-05-07 08:04 | 45.42272 | 11.66060 | 36963 ft | 420 kts | 187° |
| 2026-05-07 08:05 | 45.36423 | 11.65640 | 36972 ft | 420 kts | 187° |
| 2026-05-07 08:05 | 45.30578 | 11.65222 | 36977 ft | 420 kts | 187° |
| 2026-05-07 08:06 | 45.24775 | 11.64808 | 36983 ft | 420 kts | 187° |
| 2026-05-07 08:06 | 45.18929 | 11.64392 | 36990 ft | 420 kts | 187° |
| 2026-05-07 08:07 | 45.13084 | 11.63965 | 36998 ft | 420 kts | 187° |
| 2026-05-07 08:07 | 45.07238 | 11.63533 | 37020 ft | 420 kts | 187° |
| 2026-05-07 08:08 | 45.01391 | 11.63102 | 37005 ft | 420 kts | 187° |
| 2026-05-07 08:08 | 44.95552 | 11.62674 | 37008 ft | 420 kts | 187° |
| 2026-05-07 08:09 | 44.89705 | 11.62245 | 37014 ft | 420 kts | 187° |
| 2026-05-07 08:09 | 44.83909 | 11.61820 | 37008 ft | 420 kts | 187° |
| 2026-05-07 08:10 | 44.78039 | 11.62389 | 37009 ft | 427 kts | 177° |
| 2026-05-07 08:10 | 44.72147 | 11.63544 | 37007 ft | 428 kts | 177° |
| 2026-05-07 08:11 | 44.66243 | 11.64738 | 37004 ft | 428 kts | 177° |
| 2026-05-07 08:11 | 44.61342 | 11.65731 | 36987 ft | 427 kts | 177° |
| 2026-05-07 08:11 | 44.58420 | 11.66323 | 36770 ft | 421 kts | 178° |
| 2026-05-07 08:12 | 44.55531 | 11.66908 | 36521 ft | 417 kts | 178° |
| 2026-05-07 08:12 | 44.52674 | 11.67486 | 36274 ft | 413 kts | 178° |
| 2026-05-07 08:12 | 44.49834 | 11.68060 | 36034 ft | 410 kts | 178° |
| 2026-05-07 08:12 | 44.47014 | 11.68630 | 35794 ft | 407 kts | 178° |
| 2026-05-07 08:13 | 44.44221 | 11.69194 | 35519 ft | 402 kts | 178° |
| 2026-05-07 08:13 | 44.41457 | 11.69750 | 34933 ft | 401 kts | 179° |
| 2026-05-07 08:13 | 44.38726 | 11.70299 | 34326 ft | 402 kts | 179° |
| 2026-05-07 08:13 | 44.35933 | 11.70862 | 33774 ft | 399 kts | 179° |
| 2026-05-07 08:14 | 44.33228 | 11.71406 | 33238 ft | 396 kts | 179° |
| 2026-05-07 08:14 | 44.30515 | 11.71951 | 32755 ft | 391 kts | 179° |
| 2026-05-07 08:14 | 44.27837 | 11.72489 | 32294 ft | 387 kts | 179° |
| 2026-05-07 08:14 | 44.25189 | 11.73019 | 31833 ft | 382 kts | 179° |
| 2026-05-07 08:15 | 44.22569 | 11.73544 | 31382 ft | 378 kts | 179° |
| 2026-05-07 08:15 | 44.19976 | 11.74062 | 30943 ft | 374 kts | 179° |
| 2026-05-07 08:15 | 44.17410 | 11.74575 | 30501 ft | 370 kts | 179° |
| 2026-05-07 08:15 | 44.14867 | 11.75083 | 30087 ft | 366 kts | 179° |
| 2026-05-07 08:16 | 44.12353 | 11.75584 | 29602 ft | 363 kts | 179° |
| 2026-05-07 08:16 | 44.09869 | 11.76080 | 29182 ft | 358 kts | 179° |
| 2026-05-07 08:16 | 44.07414 | 11.76569 | 28788 ft | 354 kts | 179° |
| 2026-05-07 08:16 | 44.05020 | 11.77046 | 28407 ft | 350 kts | 179° |
| 2026-05-07 08:17 | 44.02622 | 11.77523 | 28024 ft | 346 kts | 179° |
| 2026-05-07 08:17 | 44.00256 | 11.77993 | 27647 ft | 342 kts | 179° |
| 2026-05-07 08:17 | 43.97912 | 11.78458 | 27282 ft | 338 kts | 179° |
| 2026-05-07 08:17 | 43.95596 | 11.78917 | 26926 ft | 335 kts | 179° |
| 2026-05-07 08:18 | 43.93295 | 11.79374 | 26555 ft | 332 kts | 179° |
| 2026-05-07 08:18 | 43.91016 | 11.79825 | 26212 ft | 329 kts | 179° |
| 2026-05-07 08:18 | 43.88755 | 11.80273 | 25856 ft | 327 kts | 179° |
| 2026-05-07 08:18 | 43.86510 | 11.80717 | 25510 ft | 324 kts | 179° |
| 2026-05-07 08:19 | 43.84287 | 11.81157 | 25169 ft | 321 kts | 179° |
| 2026-05-07 08:19 | 43.82092 | 11.81588 | 24837 ft | 316 kts | 180° |
| 2026-05-07 08:19 | 43.79939 | 11.81533 | 24430 ft | 308 kts | 197° |
| 2026-05-07 08:19 | 43.77991 | 11.80423 | 24097 ft | 302 kts | 216° |
| 2026-05-07 08:20 | 43.76402 | 11.78528 | 23813 ft | 304 kts | 229° |
| 2026-05-07 08:20 | 43.75040 | 11.76280 | 23494 ft | 305 kts | 231° |
| 2026-05-07 08:20 | 43.73749 | 11.73958 | 23120 ft | 305 kts | 233° |
| 2026-05-07 08:20 | 43.72520 | 11.71618 | 22787 ft | 303 kts | 234° |
| 2026-05-07 08:21 | 43.71313 | 11.69233 | 22475 ft | 303 kts | 235° |
| 2026-05-07 08:21 | 43.70121 | 11.66834 | 22165 ft | 301 kts | 235° |
| 2026-05-07 08:21 | 43.68944 | 11.64440 | 21853 ft | 301 kts | 235° |
| 2026-05-07 08:21 | 43.67776 | 11.62045 | 21538 ft | 299 kts | 236° |
| 2026-05-07 08:22 | 43.66618 | 11.59663 | 21244 ft | 299 kts | 236° |
| 2026-05-07 08:22 | 43.65461 | 11.57278 | 20938 ft | 298 kts | 236° |
| 2026-05-07 08:22 | 43.64308 | 11.54902 | 20633 ft | 298 kts | 236° |
| 2026-05-07 08:22 | 43.63157 | 11.52530 | 20323 ft | 297 kts | 236° |
| 2026-05-07 08:23 | 43.62011 | 11.50167 | 20017 ft | 296 kts | 236° |
| 2026-05-07 08:23 | 43.60866 | 11.47812 | 19718 ft | 295 kts | 236° |
| 2026-05-07 08:23 | 43.59723 | 11.45460 | 19411 ft | 295 kts | 236° |
| 2026-05-07 08:23 | 43.58582 | 11.43115 | 19117 ft | 294 kts | 236° |
| 2026-05-07 08:24 | 43.57444 | 11.40778 | 18812 ft | 293 kts | 237° |
| 2026-05-07 08:24 | 43.56320 | 11.38470 | 18511 ft | 292 kts | 237° |
| 2026-05-07 08:24 | 43.55469 | 11.35946 | 18124 ft | 293 kts | 256° |
| 2026-05-07 08:24 | 43.55292 | 11.33147 | 17801 ft | 292 kts | 264° |
| 2026-05-07 08:25 | 43.55203 | 11.30371 | 17488 ft | 289 kts | 265° |
| 2026-05-07 08:25 | 43.55133 | 11.27617 | 17168 ft | 286 kts | 265° |
| 2026-05-07 08:25 | 43.55074 | 11.24882 | 16857 ft | 283 kts | 266° |
| 2026-05-07 08:25 | 43.55023 | 11.22177 | 16556 ft | 280 kts | 266° |
| 2026-05-07 08:26 | 43.54931 | 11.16786 | 15969 ft | 285 kts | 267° |
| 2026-05-07 08:26 | 43.54886 | 11.14057 | 15668 ft | 289 kts | 267° |
| 2026-05-07 08:26 | 43.54840 | 11.11283 | 15368 ft | 289 kts | 267° |
| 2026-05-07 08:27 | 43.54794 | 11.08522 | 15074 ft | 287 kts | 267° |
| 2026-05-07 08:27 | 43.54748 | 11.05786 | 14778 ft | 284 kts | 267° |
| 2026-05-07 08:27 | 43.54381 | 11.03134 | 14447 ft | 282 kts | 249° |
| 2026-05-07 08:27 | 43.53703 | 11.00620 | 14153 ft | 279 kts | 250° |
| 2026-05-07 08:28 | 43.53043 | 10.98118 | 13881 ft | 276 kts | 250° |
| 2026-05-07 08:28 | 43.52381 | 10.95642 | 13560 ft | 274 kts | 250° |
| 2026-05-07 08:28 | 43.51721 | 10.93190 | 13256 ft | 273 kts | 250° |
| 2026-05-07 08:28 | 43.51049 | 10.90709 | 12962 ft | 279 kts | 250° |
| 2026-05-07 08:29 | 43.50374 | 10.88217 | 12674 ft | 283 kts | 250° |
| 2026-05-07 08:29 | 43.49683 | 10.85673 | 12381 ft | 283 kts | 250° |
| 2026-05-07 08:29 | 43.48992 | 10.83130 | 12072 ft | 284 kts | 250° |
| 2026-05-07 08:29 | 43.48300 | 10.80589 | 11776 ft | 284 kts | 250° |
| 2026-05-07 08:30 | 43.47607 | 10.78045 | 11482 ft | 283 kts | 250° |
| 2026-05-07 08:30 | 43.46916 | 10.75512 | 11187 ft | 282 kts | 250° |
| 2026-05-07 08:30 | 43.46311 | 10.72958 | 10867 ft | 280 kts | 259° |
| 2026-05-07 08:30 | 43.46040 | 10.70320 | 10575 ft | 278 kts | 262° |
| 2026-05-07 08:31 | 43.45782 | 10.67698 | 10300 ft | 275 kts | 262° |
| 2026-05-07 08:31 | 43.45524 | 10.65119 | 10164 ft | 268 kts | 262° |
| 2026-05-07 08:31 | 43.45268 | 10.62612 | 10005 ft | 261 kts | 262° |
| 2026-05-07 08:31 | 43.45017 | 10.60143 | 9708 ft | 259 kts | 262° |
| 2026-05-07 08:32 | 43.44766 | 10.57701 | 9421 ft | 257 kts | 262° |
| 2026-05-07 08:32 | 43.44517 | 10.55277 | 9153 ft | 255 kts | 262° |
| 2026-05-07 08:32 | 43.44269 | 10.52866 | 8866 ft | 253 kts | 262° |
| 2026-05-07 08:32 | 43.44022 | 10.50484 | 8594 ft | 251 kts | 262° |
| 2026-05-07 08:33 | 43.43780 | 10.48149 | 8336 ft | 249 kts | 261° |
| 2026-05-07 08:33 | 43.43536 | 10.45799 | 8083 ft | 247 kts | 262° |
| 2026-05-07 08:33 | 43.43292 | 10.43466 | 7803 ft | 246 kts | 262° |
| 2026-05-07 08:33 | 43.43051 | 10.41146 | 7551 ft | 244 kts | 261° |
| 2026-05-07 08:34 | 43.42806 | 10.38813 | 7169 ft | 250 kts | 261° |
| 2026-05-07 08:34 | 43.42556 | 10.36415 | 6770 ft | 253 kts | 261° |
| 2026-05-07 08:34 | 43.42305 | 10.34021 | 6459 ft | 253 kts | 261° |
| 2026-05-07 08:34 | 43.42054 | 10.31634 | 6147 ft | 252 kts | 261° |
| 2026-05-07 08:35 | 43.42076 | 10.29249 | 5821 ft | 251 kts | 286° |
| 2026-05-07 08:35 | 43.42928 | 10.27169 | 5476 ft | 253 kts | 306° |
| 2026-05-07 08:35 | 43.43994 | 10.25245 | 5172 ft | 252 kts | 305° |
| 2026-05-07 08:35 | 43.45033 | 10.23339 | 4914 ft | 245 kts | 305° |
| 2026-05-07 08:36 | 43.46049 | 10.21491 | 4652 ft | 239 kts | 308° |
| 2026-05-07 08:36 | 43.47363 | 10.20157 | 4417 ft | 233 kts | 336° |
| 2026-05-07 08:36 | 43.48891 | 10.19882 | 4280 ft | 222 kts | 5° |
| 2026-05-07 08:36 | 43.50294 | 10.20659 | 4051 ft | 217 kts | 34° |
| 2026-05-07 08:37 | 43.51458 | 10.21928 | 3820 ft | 210 kts | 37° |
| 2026-05-07 08:37 | 43.52606 | 10.23168 | 3575 ft | 205 kts | 36° |
| 2026-05-07 08:37 | 43.53716 | 10.24324 | 3330 ft | 200 kts | 35° |
| 2026-05-07 08:37 | 43.54822 | 10.25464 | 3084 ft | 197 kts | 35° |
| 2026-05-07 08:38 | 43.55912 | 10.26585 | 2829 ft | 195 kts | 35° |
| 2026-05-07 08:38 | 43.56999 | 10.27704 | 2577 ft | 195 kts | 35° |
| 2026-05-07 08:38 | 43.58084 | 10.28820 | 2326 ft | 194 kts | 35° |
| 2026-05-07 08:38 | 43.59169 | 10.29937 | 2104 ft | 194 kts | 36° |
| 2026-05-07 08:39 | 43.60211 | 10.31013 | 1834 ft | 178 kts | 36° |
| 2026-05-07 08:39 | 43.61186 | 10.32018 | 1595 ft | 173 kts | 36° |
| 2026-05-07 08:39 | 43.62142 | 10.32999 | 1360 ft | 169 kts | 35° |
| 2026-05-07 08:39 | 43.63053 | 10.33939 | 1153 ft | 160 kts | 36° |
| 2026-05-07 08:40 | 43.63929 | 10.34841 | 923 ft | 155 kts | 36° |
| 2026-05-07 08:40 | 43.64795 | 10.35728 | 706 ft | 155 kts | 37° |
| 2026-05-07 08:40 | 43.65658 | 10.36616 | 483 ft | 154 kts | 38° |
| 2026-05-07 08:40 | 43.66496 | 10.37479 | 270 ft | 150 kts | 38° |
| 2026-05-07 08:41 | 43.67315 | 10.38327 | 68 ft | 145 kts | 39° |
| 2026-05-07 08:41 | 43.68069 | 10.39108 | 19 ft | 120 kts | 36° |
| 2026-05-07 08:41 | 43.68619 | 10.39674 | 21 ft | 76 kts | 37° |
| 2026-05-07 08:41 | 43.68978 | 10.40046 | 23 ft | 61 kts | 37° |
| 2026-05-07 08:42 | 43.69219 | 10.40292 | 22 ft | 23 kts | 31° |
| 2026-05-07 08:42 | 43.69303 | 10.40253 | 21 ft | 15 kts | 306° |
| 2026-05-07 08:42 | 43.69367 | 10.40134 | 26 ft | 14 kts | 308° |
| 2026-05-07 08:42 | 43.69460 | 10.40090 | 23 ft | 12 kts | 352° |
| 2026-05-07 08:43 | 43.69554 | 10.40072 | 18 ft | 14 kts | 352° |
| 2026-05-07 08:43 | 43.69614 | 10.40061 | 18 ft | 8 kts | 352° |
| 2026-05-07 08:43 | 43.69672 | 10.40035 | 19 ft | 10 kts | 318° |
| 2026-05-07 08:43 | 43.69715 | 10.40024 | 18 ft | 5 kts | 9° |
| 2026-05-07 08:44 | 43.69744 | 10.40030 | 18 ft | 2 kts | 9° |
| 2026-05-07 08:44 | 43.69747 | 10.40031 | 18 ft | 0 kts | 9° |